Terminal Aerodrome Forecast
Issued by NWS

Home | Current Version | Previous Version | Graphics & Text | Print | Product List | Glossary On
Versions: 1 2 3 4 5 6 7 8 9 10 11 12 13 14 15 16 17
000
FTUS43 KMPX 290802 AAB
TAFRNH
TAF AMD
KRNH 290802Z 2908/3006 VRB02KT 6SM BR BKN012 BKN040
      TEMPO 2908/2911 2SM BR
     FM291300 03003KT P6SM SCT015
     FM291500 03006KT P6SM SCT040 BKN100
     FM292000 06006KT P6SM BKN100=

USA.gov is the U.S. government's official web portal to all federal, state and local government web resources and services.